createdAt,value
2022-09-14T00:00:07.051Z,100984.66
2022-09-14T00:00:41.857Z,100976.78
2022-09-14T00:01:27.565Z,100984.66
2022-09-14T00:01:59.478Z,100979.56
2022-09-14T00:02:31.093Z,100981.53
2022-09-14T00:03:02.570Z,100983.88
2022-09-14T00:03:34.174Z,100982.72
2022-09-14T00:04:14.744Z,100979.19
2022-09-14T00:04:46.110Z,100981.16
2022-09-14T00:05:17.621Z,100976.06
2022-09-14T00:05:49.173Z,100987.03
2022-09-14T00:06:22.121Z,100980.75
2022-09-14T00:06:53.416Z,100987.03
2022-09-14T00:07:25.697Z,100984.66
2022-09-14T00:07:57.204Z,100976.44
2022-09-14T00:08:28.501Z,100988.19
2022-09-14T00:09:01.002Z,100982.31
2022-09-14T00:09:32.735Z,100979.56
2022-09-14T00:10:04.414Z,100983.88
2022-09-14T00:10:43.723Z,100986.59
2022-09-14T00:11:15.140Z,100977.59
2022-09-14T00:11:47.021Z,100981.53
2022-09-14T00:12:18.640Z,100978.78
2022-09-14T00:12:49.964Z,100975.66
2022-09-14T00:13:21.310Z,100981.16
2022-09-14T00:13:53.507Z,100975.66
2022-09-14T00:14:24.897Z,100974.09
2022-09-14T00:14:56.501Z,100972.53
2022-09-14T00:15:27.879Z,100968.22
2022-09-14T00:16:04.391Z,100979.97
2022-09-14T00:16:38.441Z,100972.94
2022-09-14T00:17:09.785Z,100977.63
2022-09-14T00:17:41.187Z,100972.16
2022-09-14T00:18:12.584Z,100969.81
2022-09-14T00:18:44.796Z,100970.19
2022-09-14T00:19:26.534Z,100970.97
2022-09-14T00:19:57.837Z,100968.22
2022-09-14T00:20:30.567Z,100967.84
2022-09-14T00:21:07.320Z,100966.66
2022-09-14T00:21:39.609Z,100965.50
2022-09-14T00:22:10.925Z,100951.03
2022-09-14T00:22:42.423Z,100963.59
2022-09-14T00:23:13.774Z,100954.22
2022-09-14T00:23:45.380Z,100965.19
2022-09-14T00:24:16.846Z,100960.47
2022-09-14T00:24:48.404Z,100957.34
2022-09-14T00:25:19.984Z,100961.25
2022-09-14T00:25:51.556Z,100962.03
2022-09-14T00:26:23.624Z,100963.59
2022-09-14T00:26:55.083Z,100955.78
2022-09-14T00:27:26.413Z,100961.63
2022-09-14T00:27:58.119Z,100963.59
2022-09-14T00:28:29.723Z,100955.41
2022-09-14T00:29:04.861Z,100954.22
2022-09-14T00:29:36.658Z,100958.13
2022-09-14T00:30:08.516Z,100959.31
2022-09-14T00:30:42.404Z,100949.50
2022-09-14T00:31:14.757Z,100959.69
2022-09-14T00:31:46.282Z,100953.03
2022-09-14T00:32:18.006Z,100952.63
2022-09-14T00:32:50.364Z,100956.56
2022-09-14T00:33:21.740Z,100956.56
2022-09-14T00:33:54.117Z,100954.22
2022-09-14T00:34:25.735Z,100951.88
2022-09-14T00:34:57.082Z,100947.56
2022-09-14T00:35:28.399Z,100949.91
2022-09-14T00:36:10.631Z,100949.53
2022-09-14T00:36:45.232Z,100948.34
2022-09-14T00:37:16.784Z,100943.25
2022-09-14T00:37:51.428Z,100944.03
2022-09-14T00:38:25.910Z,100944.03
2022-09-14T00:38:58.414Z,100946.78
2022-09-14T00:39:29.952Z,100939.31
2022-09-14T00:40:01.773Z,100932.66
2022-09-14T00:40:33.137Z,100940.88
2022-09-14T00:41:08.501Z,100936.94
2022-09-14T00:41:43.392Z,100931.44
2022-09-14T00:42:19.347Z,100935.38
2022-09-14T00:42:50.743Z,100936.94
2022-09-14T00:43:22.105Z,100931.84
2022-09-14T00:44:10.764Z,100927.91
2022-09-14T00:44:42.223Z,100931.44
2022-09-14T00:45:18.713Z,100932.63
2022-09-14T00:45:50.100Z,100928.31
2022-09-14T00:46:22.267Z,100928.31
2022-09-14T00:46:56.841Z,100932.66
2022-09-14T00:47:31.293Z,100925.59
2022-09-14T00:48:02.642Z,100934.63
2022-09-14T00:48:33.989Z,100925.19
2022-09-14T00:49:12.210Z,100919.72
2022-09-14T00:49:44.674Z,100923.25
2022-09-14T00:50:17.514Z,100926.78
2022-09-14T00:50:48.885Z,100927.56
2022-09-14T00:51:21.991Z,100920.53
2022-09-14T00:52:10.373Z,100929.53
2022-09-14T00:52:45.446Z,100918.56
2022-09-14T00:53:16.878Z,100926.03
2022-09-14T00:53:48.599Z,100921.69
2022-09-14T00:54:20.268Z,100922.09
2022-09-14T00:54:58.131Z,100925.63
2022-09-14T00:55:29.529Z,100928.38
2022-09-14T00:56:01.095Z,100929.56
2022-09-14T00:56:32.807Z,100924.47
2022-09-14T00:57:04.429Z,100923.28
2022-09-14T00:57:40.375Z,100923.28
2022-09-14T00:58:11.763Z,100923.28
2022-09-14T00:58:45.923Z,100922.50
2022-09-14T00:59:25.568Z,100916.66
2022-09-14T00:59:57.437Z,100916.66
2022-09-14T01:00:30.500Z,100920.59
2022-09-14T01:01:02.446Z,100910.78
2022-09-14T01:01:34.179Z,100926.03
2022-09-14T01:02:09.098Z,100918.19
2022-09-14T01:02:41.247Z,100916.22
2022-09-14T01:03:12.624Z,100918.19
2022-09-14T01:03:43.955Z,100919.75
2022-09-14T01:04:15.415Z,100915.06
2022-09-14T01:04:48.117Z,100921.31
2022-09-14T01:05:31.435Z,100911.19
2022-09-14T01:06:48.214Z,100909.56
2022-09-14T01:07:39.787Z,100906.88
2022-09-14T01:08:28.723Z,100915.09
2022-09-14T01:09:18.596Z,100913.53
2022-09-14T01:10:04.328Z,100908.84
2022-09-14T01:11:04.705Z,100905.31
2022-09-14T01:12:09.317Z,100904.16
2022-09-14T01:13:07.344Z,100897.88
2022-09-14T01:14:16.771Z,100907.66
2022-09-14T01:15:13.198Z,100901.03
2022-09-14T01:16:02.976Z,100901.81
2022-09-14T01:16:45.898Z,100900.25
2022-09-14T01:17:36.457Z,100900.25
2022-09-14T01:18:15.563Z,100905.72
2022-09-14T01:18:55.262Z,100898.28
2022-09-14T01:19:37.377Z,100897.09
2022-09-14T01:20:35.229Z,100895.53
2022-09-14T01:21:20.567Z,100889.25
2022-09-14T01:21:56.593Z,100896.34
2022-09-14T01:22:39.125Z,100894.00
2022-09-14T01:23:36.527Z,100884.94
2022-09-14T01:24:35.939Z,100893.19
2022-09-14T01:25:27.808Z,100885.34
2022-09-14T01:26:23.557Z,100896.34
2022-09-14T01:27:09.862Z,100890.84
2022-09-14T01:27:44.204Z,100885.34
2022-09-14T01:28:39.496Z,100883.78
2022-09-14T01:29:29.036Z,100890.84
2022-09-14T01:30:06.604Z,100888.09
2022-09-14T01:30:41.572Z,100892.44
2022-09-14T01:31:28.069Z,100884.97
2022-09-14T01:32:02.067Z,100893.19
2022-09-14T01:33:04.364Z,100896.34
2022-09-14T01:33:42.316Z,100888.09
2022-09-14T01:34:45.929Z,100894.00
2022-09-14T01:35:29.415Z,100886.94
2022-09-14T01:36:05.099Z,100892.44
2022-09-14T01:36:39.035Z,100882.25
2022-09-14T01:37:19.281Z,100888.13
2022-09-14T01:38:18.236Z,100888.53
2022-09-14T01:38:53.922Z,100883.03
2022-09-14T01:39:31.558Z,100882.25
2022-09-14T01:40:36.105Z,100887.75
2022-09-14T01:41:12.264Z,100880.69
2022-09-14T01:41:44.147Z,100880.69
2022-09-14T01:42:18.560Z,100882.66
2022-09-14T01:42:54.879Z,100883.44
2022-09-14T01:43:42.781Z,100884.22
2022-09-14T01:44:23.341Z,100882.66
2022-09-14T01:44:59.723Z,100884.22
2022-09-14T01:45:33.288Z,100882.66
2022-09-14T01:46:10.465Z,100883.06
2022-09-14T01:46:48.020Z,100887.38
2022-09-14T01:47:26.429Z,100886.59
2022-09-14T01:48:02.987Z,100884.63
2022-09-14T01:48:39.990Z,100882.72
2022-09-14T01:49:20.636Z,100881.94
2022-09-14T01:50:09.443Z,100876.81
2022-09-14T01:50:47.016Z,100881.16
2022-09-14T01:51:25.799Z,100879.56
2022-09-14T01:52:02.607Z,100880.75
2022-09-14T01:52:42.533Z,100880.75
2022-09-14T01:53:34.607Z,100880.31
2022-09-14T01:54:16.197Z,100877.22
2022-09-14T01:54:56.974Z,100878.41
2022-09-14T01:55:32.037Z,100874.09
2022-09-14T01:56:20.088Z,100875.28
2022-09-14T01:56:55.693Z,100876.06
2022-09-14T01:57:53.304Z,100875.66
2022-09-14T01:58:40.687Z,100876.84
2022-09-14T01:59:19.406Z,100866.66
2022-09-14T01:59:56.256Z,100871.34
2022-09-14T02:00:28.232Z,100871.34
2022-09-14T02:01:02.828Z,100870.56
2022-09-14T02:01:46.415Z,100867.03
2022-09-14T02:02:29.529Z,100866.66
2022-09-14T02:03:19.736Z,100870.94
2022-09-14T02:04:01.528Z,100874.88
2022-09-14T02:04:58.044Z,100876.06
2022-09-14T02:06:05.038Z,100869.00
2022-09-14T02:06:43.479Z,100870.97
2022-09-14T02:07:16.716Z,100871.38
2022-09-14T02:07:48.234Z,100868.63
2022-09-14T02:08:19.655Z,100860.81
2022-09-14T02:08:52.003Z,100864.31
2022-09-14T02:09:26.952Z,100863.53
2022-09-14T02:09:59.267Z,100860.00
2022-09-14T02:10:31.392Z,100863.91
2022-09-14T02:11:02.839Z,100867.44
2022-09-14T02:11:34.363Z,100867.03
2022-09-14T02:12:06.053Z,100864.69
2022-09-14T02:12:38.143Z,100857.22
2022-09-14T02:13:10.051Z,100858.81
2022-09-14T02:13:41.730Z,100857.22
2022-09-14T02:14:13.205Z,100862.72
2022-09-14T02:14:47.041Z,100862.72
2022-09-14T02:15:18.727Z,100859.19
2022-09-14T02:15:50.473Z,100865.06
2022-09-14T02:16:23.408Z,100858.78
2022-09-14T02:16:54.802Z,100860.75
2022-09-14T02:17:26.348Z,100859.97
2022-09-14T02:17:57.707Z,100862.72
2022-09-14T02:18:29.267Z,100864.63
2022-09-14T02:19:01.635Z,100863.84
2022-09-14T02:19:40.757Z,100859.19
2022-09-14T02:20:20.691Z,100855.66
2022-09-14T02:20:56.772Z,100857.22
2022-09-14T02:21:31.059Z,100863.09
2022-09-14T02:22:02.379Z,100858.41
2022-09-14T02:22:33.959Z,100858.34
2022-09-14T02:23:06.636Z,100860.34
2022-09-14T02:23:38.228Z,100859.56
2022-09-14T02:24:10.663Z,100859.56
2022-09-14T02:24:42.523Z,100858.78
2022-09-14T02:25:14.341Z,100859.19
2022-09-14T02:25:47.523Z,100854.09
2022-09-14T02:26:20.425Z,100854.88
2022-09-14T02:26:53.971Z,100849.38
2022-09-14T02:27:25.598Z,100852.91
2022-09-14T02:27:56.907Z,100857.25
2022-09-14T02:28:28.315Z,100859.59
2022-09-14T02:28:59.690Z,100859.19
2022-09-14T02:29:31.282Z,100853.31
2022-09-14T02:30:03.935Z,100856.44
2022-09-14T02:30:49.099Z,100862.72
2022-09-14T02:31:55.228Z,100857.22
2022-09-14T02:32:42.837Z,100851.34
2022-09-14T02:33:22.961Z,100851.75
2022-09-14T02:34:31.707Z,100852.53
2022-09-14T02:35:19.896Z,100852.16
2022-09-14T02:35:55.552Z,100849.03
2022-09-14T02:36:49.721Z,100840.81
2022-09-14T02:37:39.496Z,100849.44
2022-09-14T02:38:29.712Z,100846.69
2022-09-14T02:39:45.039Z,100844.75
2022-09-14T02:40:33.903Z,100847.88
2022-09-14T02:41:19.002Z,100847.88
2022-09-14T02:41:59.887Z,100838.50
2022-09-14T02:42:43.171Z,100842.38
2022-09-14T02:43:37.203Z,100842.38
2022-09-14T02:44:25.914Z,100836.13
2022-09-14T02:45:01.573Z,100838.09
2022-09-14T02:46:06.994Z,100836.91
2022-09-14T02:46:51.884Z,100826.72
2022-09-14T02:47:33.139Z,100826.72
2022-09-14T02:48:25.955Z,100832.22
2022-09-14T02:49:06.740Z,100834.59
2022-09-14T02:49:48.518Z,100831.84
2022-09-14T02:50:37.051Z,100829.88
2022-09-14T02:51:28.660Z,100827.13
2022-09-14T02:52:13.036Z,100822.81
2022-09-14T02:52:59.632Z,100827.53
2022-09-14T02:53:50.287Z,100826.34
2022-09-14T02:54:32.971Z,100828.31
2022-09-14T02:55:10.901Z,100827.53
2022-09-14T02:55:48.076Z,100827.53
2022-09-14T02:56:21.004Z,100825.97
2022-09-14T02:56:52.357Z,100827.53
2022-09-14T02:57:24.939Z,100833.03
2022-09-14T02:58:13.340Z,100823.59
2022-09-14T02:58:45.566Z,100823.59
2022-09-14T02:59:18.685Z,100819.28
2022-09-14T02:59:50.221Z,100819.28
2022-09-14T03:00:21.554Z,100831.06
2022-09-14T03:00:52.954Z,100825.56
2022-09-14T03:01:25.083Z,100828.31
2022-09-14T03:01:58.757Z,100822.81
2022-09-14T03:02:30.090Z,100823.19
2022-09-14T03:03:01.493Z,100818.50
2022-09-14T03:03:35.570Z,100819.28
2022-09-14T03:04:07.435Z,100812.22
2022-09-14T03:04:38.750Z,100813.38
2022-09-14T03:05:10.243Z,100816.13
2022-09-14T03:05:42.193Z,100812.97
2022-09-14T03:06:14.126Z,100818.47
2022-09-14T03:06:45.499Z,100819.25
2022-09-14T03:07:16.882Z,100815.72
2022-09-14T03:07:48.183Z,100814.53
2022-09-14T03:08:19.500Z,100812.19
2022-09-14T03:08:50.973Z,100810.22
2022-09-14T03:09:22.396Z,100809.44
2022-09-14T03:09:53.718Z,100809.81
2022-09-14T03:10:25.219Z,100812.19
2022-09-14T03:10:57.038Z,100812.56
2022-09-14T03:11:28.414Z,100811.41
2022-09-14T03:11:59.913Z,100815.75
2022-09-14T03:12:31.221Z,100812.19
2022-09-14T03:13:03.101Z,100812.59
2022-09-14T03:13:35.749Z,100810.63
2022-09-14T03:14:07.081Z,100809.84
2022-09-14T03:14:38.399Z,100820.44
2022-09-14T03:15:10.289Z,100816.13
2022-09-14T03:15:41.630Z,100819.66
2022-09-14T03:16:16.835Z,100817.31
2022-09-14T03:16:48.364Z,100815.34
2022-09-14T03:17:19.715Z,100826.69
2022-09-14T03:17:51.769Z,100825.91
2022-09-14T03:18:23.350Z,100818.09
2022-09-14T03:18:54.844Z,100818.88
2022-09-14T03:19:26.217Z,100818.13
2022-09-14T03:19:57.627Z,100825.53
2022-09-14T03:20:32.930Z,100822.41
2022-09-14T03:21:06.315Z,100815.38
2022-09-14T03:21:40.322Z,100814.97
2022-09-14T03:22:11.816Z,100818.09
2022-09-14T03:22:43.141Z,100820.44
2022-09-14T03:23:14.844Z,100822.00
2022-09-14T03:23:48.357Z,100811.81
2022-09-14T03:24:19.881Z,100809.88
2022-09-14T03:24:51.473Z,100814.97
2022-09-14T03:25:25.703Z,100821.59
2022-09-14T03:25:57.124Z,100813.00
2022-09-14T03:26:29.650Z,100816.53
2022-09-14T03:27:01.157Z,100813.00
2022-09-14T03:27:32.649Z,100808.28
2022-09-14T03:28:05.204Z,100812.22
2022-09-14T03:28:37.235Z,100810.25
2022-09-14T03:29:08.745Z,100813.00
2022-09-14T03:29:40.245Z,100805.94
2022-09-14T03:30:11.925Z,100808.69
2022-09-14T03:30:43.424Z,100808.69
2022-09-14T03:31:14.786Z,100795.78
2022-09-14T03:31:46.429Z,100795.78
2022-09-14T03:32:17.805Z,100795.03
2022-09-14T03:32:49.618Z,100797.34
2022-09-14T03:33:20.925Z,100796.16
2022-09-14T03:33:55.032Z,100794.19
2022-09-14T03:34:26.456Z,100783.66
2022-09-14T03:34:57.876Z,100791.50
2022-09-14T03:35:31.384Z,100794.59
2022-09-14T03:36:14.163Z,100781.31
2022-09-14T03:36:45.475Z,100784.88
2022-09-14T03:37:16.855Z,100798.63
2022-09-14T03:37:48.181Z,100789.25
2022-09-14T03:38:19.819Z,100786.50
2022-09-14T03:38:53.954Z,100786.88
2022-09-14T03:39:25.265Z,100786.88
2022-09-14T03:39:56.647Z,100787.66
2022-09-14T03:40:28.296Z,100790.00
2022-09-14T03:40:59.872Z,100791.97
2022-09-14T03:41:31.244Z,100790.00
2022-09-14T03:42:02.542Z,100790.75
2022-09-14T03:42:33.916Z,100794.69
2022-09-14T03:43:05.233Z,100796.25
2022-09-14T03:43:36.813Z,100795.47
2022-09-14T03:44:10.026Z,100793.91
2022-09-14T03:44:41.329Z,100797.81
2022-09-14T03:45:13.942Z,100796.66
2022-09-14T03:45:45.309Z,100796.25
2022-09-14T03:46:22.822Z,100796.25
2022-09-14T03:46:54.442Z,100798.19
2022-09-14T03:47:26.353Z,100803.28
2022-09-14T03:47:57.716Z,100800.53
2022-09-14T03:48:29.722Z,100800.53
2022-09-14T03:49:01.328Z,100797.81
2022-09-14T03:49:32.634Z,100795.84
2022-09-14T03:50:04.433Z,100792.31
2022-09-14T03:50:35.936Z,100784.88
2022-09-14T03:51:09.120Z,100789.56
2022-09-14T03:51:40.464Z,100790.75
2022-09-14T03:52:11.781Z,100793.50
2022-09-14T03:52:43.162Z,100784.47
2022-09-14T03:53:14.493Z,100781.31
2022-09-14T03:53:46.545Z,100784.47
2022-09-14T03:54:17.920Z,100776.25
2022-09-14T03:54:49.276Z,100777.84
2022-09-14T03:55:20.763Z,100782.50
2022-09-14T03:55:52.108Z,100787.22
2022-09-14T03:56:23.887Z,100783.28
2022-09-14T03:56:55.444Z,100778.63
2022-09-14T03:57:26.944Z,100785.25
2022-09-14T03:57:58.259Z,100778.63
2022-09-14T03:58:32.919Z,100778.22
2022-09-14T03:59:04.855Z,100775.88
2022-09-14T03:59:39.392Z,100779.78
2022-09-14T04:00:13.605Z,100779.78
2022-09-14T04:00:45.572Z,100775.47
2022-09-14T04:01:19.614Z,100774.28
2022-09-14T04:01:51.235Z,100771.53
2022-09-14T04:02:22.725Z,100770.75
2022-09-14T04:02:54.090Z,100773.88
2022-09-14T04:03:25.461Z,100772.72
2022-09-14T04:03:56.802Z,100769.56
2022-09-14T04:04:28.777Z,100766.84
2022-09-14T04:05:00.310Z,100766.44
2022-09-14T04:05:31.823Z,100767.59
2022-09-14T04:06:07.305Z,100768.78
2022-09-14T04:06:38.785Z,100766.03
2022-09-14T04:07:10.302Z,100767.22
2022-09-14T04:07:41.866Z,100758.63
2022-09-14T04:08:13.230Z,100772.72
2022-09-14T04:08:46.099Z,100773.50
2022-09-14T04:09:19.148Z,100772.72
2022-09-14T04:09:50.448Z,100767.63
2022-09-14T04:10:21.765Z,100771.16
2022-09-14T04:10:53.545Z,100770.38
2022-09-14T04:11:25.480Z,100767.25
2022-09-14T04:11:56.989Z,100772.34
2022-09-14T04:12:28.544Z,100767.63
2022-09-14T04:13:01.872Z,100762.16
2022-09-14T04:13:33.266Z,100768.41
2022-09-14T04:14:05.410Z,100767.63
2022-09-14T04:14:36.794Z,100769.22
2022-09-14T04:15:08.809Z,100768.03
2022-09-14T04:15:40.476Z,100767.63
2022-09-14T04:16:12.474Z,100768.81
2022-09-14T04:16:44.666Z,100763.72
2022-09-14T04:17:17.199Z,100762.56
2022-09-14T04:17:48.606Z,100767.63
2022-09-14T04:18:19.945Z,100766.44
2022-09-14T04:18:51.445Z,100765.28
2022-09-14T04:19:22.919Z,100766.84
2022-09-14T04:19:54.214Z,100769.59
2022-09-14T04:20:25.555Z,100768.03
2022-09-14T04:21:08.418Z,100763.31
2022-09-14T04:21:40.397Z,100761.78
2022-09-14T04:22:11.889Z,100764.50
2022-09-14T04:22:43.355Z,100766.47
2022-09-14T04:23:14.677Z,100751.59
2022-09-14T04:24:10.527Z,100754.75
2022-09-14T04:24:38.115Z,100759.06
2022-09-14T04:25:09.650Z,100759.47
2022-09-14T04:25:40.954Z,100763.38
2022-09-14T04:26:15.016Z,100762.59
2022-09-14T04:26:46.783Z,100762.22
2022-09-14T04:27:18.255Z,100759.84
2022-09-14T04:28:04.210Z,100765.34
2022-09-14T04:28:42.405Z,100764.16
2022-09-14T04:29:14.746Z,100763.38
2022-09-14T04:29:49.742Z,100764.16
2022-09-14T04:30:21.109Z,100766.50
2022-09-14T04:31:00.354Z,100769.25
2022-09-14T04:31:32.882Z,100767.28
2022-09-14T04:32:04.355Z,100764.94
2022-09-14T04:32:35.671Z,100764.94
2022-09-14T04:33:06.977Z,100755.94
2022-09-14T04:33:40.715Z,100759.47
2022-09-14T04:34:13.904Z,100758.69
2022-09-14T04:34:45.198Z,100765.72
2022-09-14T04:35:16.535Z,100758.31
2022-09-14T04:35:56.573Z,100761.81
2022-09-14T04:36:30.760Z,100761.03
2022-09-14T04:37:02.237Z,100755.25
2022-09-14T04:37:33.822Z,100759.47
2022-09-14T04:38:05.373Z,100755.97
2022-09-14T04:38:38.409Z,100762.22
2022-09-14T04:39:12.536Z,100763.78
2022-09-14T04:39:43.943Z,100762.66
2022-09-14T04:40:15.573Z,100764.97
2022-09-14T04:40:46.926Z,100766.16
2022-09-14T04:41:20.453Z,100763.41
2022-09-14T04:41:51.988Z,100754.06
2022-09-14T04:42:23.492Z,100760.66
2022-09-14T04:42:54.990Z,100760.66
2022-09-14T04:43:27.339Z,100756.41
2022-09-14T04:44:00.029Z,100755.97
2022-09-14T04:44:31.418Z,100755.63
2022-09-14T04:45:04.223Z,100757.53
2022-09-14T04:45:36.969Z,100760.25
2022-09-14T04:46:11.882Z,100757.56
2022-09-14T04:46:46.607Z,100753.66
2022-09-14T04:47:18.463Z,100763.41
2022-09-14T04:47:50.628Z,100760.66
2022-09-14T04:48:22.179Z,100761.88
2022-09-14T04:48:53.539Z,100757.19
2022-09-14T04:49:24.952Z,100755.19
2022-09-14T04:49:56.273Z,100749.69
2022-09-14T04:50:27.568Z,100756.75
2022-09-14T04:51:03.540Z,100748.94
2022-09-14T04:51:36.669Z,100755.19
2022-09-14T04:52:08.036Z,100748.16
2022-09-14T04:52:39.387Z,100745.81
2022-09-14T04:53:11.700Z,100757.19
2022-09-14T04:53:44.358Z,100753.28
2022-09-14T04:54:17.548Z,100755.25
2022-09-14T04:54:49.040Z,100753.28
2022-09-14T04:55:20.346Z,100751.72
2022-09-14T04:55:51.653Z,100745.44
2022-09-14T04:56:24.256Z,100743.84
2022-09-14T04:56:55.840Z,100745.81
2022-09-14T04:57:27.761Z,100739.94
2022-09-14T04:57:59.252Z,100737.59
2022-09-14T04:58:31.043Z,100739.94
2022-09-14T04:59:04.475Z,100735.97
2022-09-14T04:59:35.883Z,100730.47
2022-09-14T05:00:08.013Z,100735.16
2022-09-14T05:00:39.672Z,100730.47
2022-09-14T05:01:14.589Z,100730.84
2022-09-14T05:01:50.246Z,100735.97
2022-09-14T05:02:21.700Z,100736.81
2022-09-14T05:02:53.376Z,100733.69
2022-09-14T05:03:24.755Z,100734.88
2022-09-14T05:03:56.616Z,100745.03
2022-09-14T05:04:28.149Z,100739.19
2022-09-14T05:04:59.646Z,100739.19
2022-09-14T05:05:34.371Z,100747.78
2022-09-14T05:06:14.286Z,100748.59
2022-09-14T05:06:45.833Z,100738.41
2022-09-14T05:07:17.343Z,100736.09
2022-09-14T05:07:48.856Z,100745.47
2022-09-14T05:08:20.376Z,100754.09
2022-09-14T05:08:52.908Z,100758.78
2022-09-14T05:09:24.275Z,100745.06
2022-09-14T05:09:55.673Z,100747.03
2022-09-14T05:10:27.051Z,100742.72
2022-09-14T05:10:58.924Z,100745.84
2022-09-14T05:11:34.388Z,100748.59
2022-09-14T05:12:06.425Z,100740.75
2022-09-14T05:12:37.864Z,100751.34
2022-09-14T05:13:09.213Z,100756.03
2022-09-14T05:13:42.082Z,100750.16
2022-09-14T05:14:14.614Z,100752.13
2022-09-14T05:14:46.533Z,100745.44
2022-09-14T05:15:17.939Z,100750.94
2022-09-14T05:15:50.318Z,100750.16
2022-09-14T05:16:25.396Z,100747.41
2022-09-14T05:17:01.110Z,100746.22
2022-09-14T05:17:35.168Z,100747.41
2022-09-14T05:18:06.444Z,100745.84
2022-09-14T05:18:37.832Z,100743.88
2022-09-14T05:19:13.344Z,100746.22
2022-09-14T05:19:44.651Z,100743.09
2022-09-14T05:20:16.080Z,100741.16
2022-09-14T05:20:47.450Z,100749.38
2022-09-14T05:21:20.392Z,100750.16
2022-09-14T05:21:51.690Z,100750.56
2022-09-14T05:22:23.212Z,100751.34
2022-09-14T05:22:54.530Z,100750.56
2022-09-14T05:23:25.826Z,100750.56
2022-09-14T05:24:03.306Z,100758.38
2022-09-14T05:24:34.857Z,100744.69
2022-09-14T05:25:06.672Z,100751.34
2022-09-14T05:25:38.172Z,100749.78
2022-09-14T05:26:09.683Z,100758.78
2022-09-14T05:26:43.154Z,100749.03
2022-09-14T05:27:14.432Z,100758.00
2022-09-14T05:27:45.713Z,100757.22
2022-09-14T05:28:16.994Z,100754.47
2022-09-14T05:28:53.478Z,100749.41
2022-09-14T05:29:25.189Z,100748.22
2022-09-14T05:29:56.509Z,100745.88
2022-09-14T05:30:28.076Z,100751.00
2022-09-14T05:30:59.447Z,100749.00
2022-09-14T05:31:32.204Z,100750.59
2022-09-14T05:32:03.826Z,100747.84
2022-09-14T05:32:35.140Z,100760.75
2022-09-14T05:33:06.653Z,100753.31
2022-09-14T05:33:38.168Z,100746.28
2022-09-14T05:34:10.727Z,100761.94
2022-09-14T05:34:42.039Z,100754.09
2022-09-14T05:35:13.489Z,100752.13
2022-09-14T05:35:45.626Z,100756.44
2022-09-14T05:36:17.301Z,100756.81
2022-09-14T05:36:48.773Z,100757.22
2022-09-14T05:37:20.144Z,100757.22
2022-09-14T05:37:51.664Z,100753.31
2022-09-14T05:38:23.027Z,100757.22
2022-09-14T05:38:54.943Z,100764.66
2022-09-14T05:39:26.337Z,100748.59
2022-09-14T05:39:57.710Z,100757.59
2022-09-14T05:40:29.117Z,100763.09
2022-09-14T05:41:00.556Z,100755.66
2022-09-14T05:41:32.084Z,100754.09
2022-09-14T05:42:03.699Z,100751.34
2022-09-14T05:42:35.328Z,100749.78
2022-09-14T05:43:07.096Z,100746.63
2022-09-14T05:43:39.157Z,100754.09
2022-09-14T05:44:10.756Z,100747.03
2022-09-14T05:44:42.131Z,100756.41
2022-09-14T05:45:13.497Z,100760.72
2022-09-14T05:45:45.009Z,100751.72
2022-09-14T05:46:20.744Z,100757.56
2022-09-14T05:46:52.399Z,100759.13
2022-09-14T05:47:23.888Z,100755.63
2022-09-14T05:47:55.418Z,100754.47
2022-09-14T05:48:26.876Z,100753.69
2022-09-14T05:48:58.219Z,100751.72
2022-09-14T05:49:29.554Z,100750.94
2022-09-14T05:50:00.871Z,100750.16
2022-09-14T05:50:33.642Z,100747.78
2022-09-14T05:51:10.940Z,100752.09
2022-09-14T05:51:42.268Z,100754.06
2022-09-14T05:52:13.592Z,100753.28
2022-09-14T05:52:45.133Z,100737.63
2022-09-14T05:53:16.446Z,100745.81
2022-09-14T05:53:52.162Z,100742.69
2022-09-14T05:54:23.477Z,100733.28
2022-09-14T05:54:54.778Z,100746.19
2022-09-14T05:55:26.970Z,100746.19
2022-09-14T05:56:10.289Z,100743.78
2022-09-14T05:56:41.604Z,100747.72
2022-09-14T05:57:13.170Z,100739.50
2022-09-14T05:57:49.724Z,100744.97
2022-09-14T05:58:21.153Z,100741.13
2022-09-14T05:58:52.771Z,100747.72
2022-09-14T05:59:24.160Z,100742.25
2022-09-14T05:59:55.662Z,100742.25
2022-09-14T06:00:27.600Z,100742.69
2022-09-14T06:00:59.016Z,100739.50
2022-09-14T06:01:32.568Z,100750.84
2022-09-14T06:02:04.279Z,100742.25
2022-09-14T06:02:35.659Z,100735.97
2022-09-14T06:03:07.587Z,100740.66
2022-09-14T06:03:39.420Z,100743.00
2022-09-14T06:04:11.352Z,100748.47
2022-09-14T06:04:42.867Z,100747.28
2022-09-14T06:05:15.139Z,100750.03
2022-09-14T06:05:46.623Z,100742.22
2022-09-14T06:06:19.647Z,100749.63
2022-09-14T06:07:14.573Z,100753.56
2022-09-14T06:07:42.477Z,100748.06
2022-09-14T06:08:13.795Z,100749.25
2022-09-14T06:08:46.157Z,100749.25
2022-09-14T06:09:17.461Z,100752.00
2022-09-14T06:09:48.839Z,100752.00
2022-09-14T06:10:21.703Z,100755.53
2022-09-14T06:10:53.206Z,100753.19
2022-09-14T06:11:28.332Z,100755.53
2022-09-14T06:11:59.661Z,100748.88
2022-09-14T06:12:31.316Z,100748.84
2022-09-14T06:13:02.732Z,100744.16
2022-09-14T06:13:34.952Z,100742.19
2022-09-14T06:14:06.731Z,100749.63
2022-09-14T06:14:38.120Z,100753.94
2022-09-14T06:15:10.856Z,100747.66
2022-09-14T06:15:42.230Z,100752.38
2022-09-14T06:16:15.870Z,100754.72
2022-09-14T06:16:47.409Z,100745.31
2022-09-14T06:17:18.720Z,100743.75
2022-09-14T06:17:50.018Z,100748.81
2022-09-14T06:18:21.324Z,100749.59
2022-09-14T06:18:54.961Z,100746.09
2022-09-14T06:19:26.988Z,100748.41
2022-09-14T06:20:03.495Z,100747.25
2022-09-14T06:20:35.974Z,100748.41
2022-09-14T06:21:09.020Z,100757.81
2022-09-14T06:21:40.679Z,100756.25
2022-09-14T06:22:11.999Z,100755.06
2022-09-14T06:22:43.501Z,100757.03
2022-09-14T06:23:14.873Z,100761.75
2022-09-14T06:23:47.866Z,100760.97
2022-09-14T06:24:19.448Z,100758.59
2022-09-14T06:24:50.812Z,100762.53
2022-09-14T06:25:22.172Z,100759.00
2022-09-14T06:25:55.334Z,100759.41
2022-09-14T06:26:27.044Z,100763.31
2022-09-14T06:26:58.361Z,100764.47
2022-09-14T06:27:29.636Z,100764.09
2022-09-14T06:28:01.117Z,100763.31
2022-09-14T06:28:33.493Z,100759.38
2022-09-14T06:29:05.192Z,100759.38
2022-09-14T06:29:36.535Z,100764.84
2022-09-14T06:30:08.647Z,100760.94
2022-09-14T06:30:44.203Z,100764.06
2022-09-14T06:31:17.701Z,100759.34
2022-09-14T06:31:49.010Z,100754.59
2022-09-14T06:32:23.271Z,100764.41
2022-09-14T06:32:54.853Z,100763.22
2022-09-14T06:33:27.600Z,100759.28
2022-09-14T06:33:59.090Z,100759.28
2022-09-14T06:34:30.653Z,100763.97
2022-09-14T06:35:03.628Z,100757.31
2022-09-14T06:35:35.001Z,100760.81
2022-09-14T06:36:12.574Z,100768.63
2022-09-14T06:36:44.898Z,100756.09
2022-09-14T06:37:16.430Z,100758.81